createdAt,value
2019-05-19T00:00:05.353Z,30.73
2019-05-19T00:02:32.358Z,32.13
2019-05-19T00:04:59.347Z,32.73
2019-05-19T00:07:26.409Z,28.57
2019-05-19T00:09:53.432Z,30.90
2019-05-19T00:12:20.439Z,32.23
2019-05-19T00:14:47.466Z,29.33
2019-05-19T00:17:14.466Z,27.97
2019-05-19T00:19:41.510Z,26.80
2019-05-19T00:22:08.520Z,27.90
2019-05-19T00:24:35.512Z,27.47
2019-05-19T00:27:02.641Z,27.90
2019-05-19T00:29:29.663Z,25.70
2019-05-19T00:31:56.775Z,30.20
2019-05-19T00:34:23.847Z,31.03
2019-05-19T00:36:50.857Z,29.33
2019-05-19T00:39:17.889Z,31.87
2019-05-19T00:41:44.891Z,29.40
2019-05-19T00:44:11.925Z,28.47
2019-05-19T00:46:38.997Z,33.83
2019-05-19T00:49:05.996Z,29.37
2019-05-19T00:51:33.523Z,30.93
2019-05-19T00:54:00.561Z,31.10
2019-05-19T00:56:27.778Z,33.87
2019-05-19T00:58:57.033Z,29.63
2019-05-19T01:01:24.047Z,30.67
2019-05-19T01:03:51.061Z,28.83
2019-05-19T01:06:18.104Z,28.17
2019-05-19T01:08:45.115Z,28.07
2019-05-19T01:11:12.154Z,27.50
2019-05-19T01:13:39.180Z,28.63
2019-05-19T01:16:06.193Z,29.77
2019-05-19T01:18:33.202Z,30.53
2019-05-19T01:21:00.454Z,29.80
2019-05-19T01:23:27.520Z,32.57
2019-05-19T01:25:54.573Z,27.33
2019-05-19T01:28:21.624Z,30.70
2019-05-19T01:30:48.691Z,30.27
2019-05-19T01:33:15.730Z,29.67
2019-05-19T01:35:42.765Z,32.80
2019-05-19T01:38:09.784Z,31.27
2019-05-19T01:40:36.790Z,31.20
2019-05-19T01:43:03.815Z,34.27
2019-05-19T01:45:30.826Z,32.70
2019-05-19T01:47:57.834Z,38.97
2019-05-19T01:50:24.887Z,34.00
2019-05-19T01:52:51.916Z,31.17
2019-05-19T01:55:18.923Z,36.70
2019-05-19T01:57:45.949Z,33.73
2019-05-19T02:00:13.181Z,35.83
2019-05-19T02:02:40.231Z,35.43
2019-05-19T02:05:07.809Z,31.50
2019-05-19T02:07:34.829Z,34.83
2019-05-19T02:10:02.213Z,35.20
2019-05-19T02:12:29.448Z,34.00
2019-05-19T02:14:56.460Z,33.50
2019-05-19T02:17:23.513Z,38.17
2019-05-19T02:19:50.553Z,35.80
2019-05-19T02:22:17.574Z,34.47
2019-05-19T02:24:44.617Z,38.00
2019-05-19T02:27:11.660Z,37.40
2019-05-19T02:29:38.682Z,35.80
2019-05-19T02:32:05.755Z,38.87
2019-05-19T02:34:32.903Z,34.07
2019-05-19T02:36:59.877Z,38.87
2019-05-19T02:39:26.906Z,36.07
2019-05-19T02:41:55.684Z,33.77
2019-05-19T02:44:23.816Z,36.17
2019-05-19T02:46:52.148Z,34.27
2019-05-19T02:49:19.928Z,35.27
2019-05-19T02:51:49.248Z,33.50
2019-05-19T02:54:18.623Z,32.80
2019-05-19T02:56:47.237Z,31.67
2019-05-19T02:59:15.270Z,33.97
2019-05-19T03:02:06.874Z,33.13
2019-05-19T03:04:35.077Z,35.37
2019-05-19T03:07:02.163Z,35.37
2019-05-19T03:09:29.170Z,36.90
2019-05-19T03:11:56.173Z,36.30
2019-05-19T03:14:23.210Z,38.43
2019-05-19T03:16:50.229Z,39.00
2019-05-19T03:19:17.251Z,37.23
2019-05-19T03:21:44.283Z,37.40
2019-05-19T03:24:11.317Z,39.03
2019-05-19T03:26:38.350Z,41.30
2019-05-19T03:29:05.695Z,38.27
2019-05-19T03:31:40.212Z,37.90
2019-05-19T03:34:07.295Z,38.63
2019-05-19T03:36:34.335Z,40.73
2019-05-19T03:39:01.365Z,43.10
2019-05-19T03:41:28.485Z,40.07
2019-05-19T03:43:55.545Z,43.57
2019-05-19T03:46:22.562Z,40.90
2019-05-19T03:48:49.580Z,40.70
2019-05-19T03:51:30.395Z,39.13
2019-05-19T03:53:45.600Z,36.90
2019-05-19T03:56:12.642Z,40.00
2019-05-19T03:58:39.663Z,41.70
2019-05-19T04:01:06.794Z,36.47
2019-05-19T04:03:33.825Z,40.53
2019-05-19T04:06:00.881Z,38.40
2019-05-19T04:08:27.925Z,37.40
2019-05-19T04:10:54.959Z,38.13
2019-05-19T04:13:22.004Z,42.13
2019-05-19T04:15:49.169Z,38.83
2019-05-19T04:18:16.184Z,40.27
2019-05-19T04:20:43.215Z,42.20
2019-05-19T04:23:10.285Z,44.13
2019-05-19T04:25:37.303Z,41.10
2019-05-19T04:28:04.314Z,44.43
2019-05-19T04:30:31.372Z,42.23
2019-05-19T04:32:58.449Z,43.37
2019-05-19T04:35:25.487Z,42.43
2019-05-19T04:37:52.514Z,41.33
2019-05-19T04:40:19.564Z,45.17
2019-05-19T04:42:46.585Z,44.10
2019-05-19T04:45:13.693Z,43.77
2019-05-19T04:47:40.723Z,41.23
2019-05-19T04:50:07.738Z,41.97
2019-05-19T04:52:34.744Z,41.27
2019-05-19T04:55:01.932Z,43.33
2019-05-19T04:57:28.952Z,41.10
2019-05-19T04:59:56.001Z,41.20
2019-05-19T05:02:23.088Z,41.07
2019-05-19T05:04:50.117Z,37.53
2019-05-19T05:07:17.168Z,38.17
2019-05-19T05:09:44.219Z,37.27
2019-05-19T05:12:11.662Z,38.30
2019-05-19T05:14:38.674Z,39.60
2019-05-19T05:17:05.698Z,42.47
2019-05-19T05:19:32.701Z,40.10
2019-05-19T05:21:59.732Z,39.90
2019-05-19T05:24:28.686Z,39.53
2019-05-19T05:26:55.732Z,37.87
2019-05-19T05:29:22.773Z,38.17
2019-05-19T05:31:49.820Z,36.33
2019-05-19T05:34:16.880Z,37.47
2019-05-19T05:36:43.894Z,39.07
2019-05-19T05:39:10.939Z,38.43
2019-05-19T05:41:37.943Z,38.43
2019-05-19T05:44:05.055Z,36.20
2019-05-19T05:46:32.077Z,39.10
2019-05-19T05:48:59.093Z,38.33
2019-05-19T05:51:26.122Z,36.53
2019-05-19T05:53:53.163Z,38.70
2019-05-19T05:56:20.189Z,37.27
2019-05-19T05:58:47.231Z,36.07
2019-05-19T06:01:14.256Z,36.43
2019-05-19T06:03:41.320Z,36.17
2019-05-19T06:06:08.392Z,38.37
2019-05-19T06:08:35.427Z,39.07
2019-05-19T06:11:02.469Z,36.77
2019-05-19T06:13:29.571Z,35.73
2019-05-19T06:15:56.627Z,34.43
2019-05-19T06:18:24.027Z,35.30
2019-05-19T06:20:51.191Z,36.40
2019-05-19T06:23:18.239Z,36.97
2019-05-19T06:25:45.293Z,35.97
2019-05-19T06:28:12.383Z,35.50
2019-05-19T06:30:39.480Z,36.07
2019-05-19T06:33:06.532Z,35.57
2019-05-19T06:35:33.622Z,35.20
2019-05-19T06:38:00.653Z,34.63
2019-05-19T06:40:27.717Z,33.87
2019-05-19T06:42:54.975Z,35.83
2019-05-19T06:45:22.021Z,35.53
2019-05-19T06:47:49.280Z,35.70
2019-05-19T06:50:19.131Z,35.43
2019-05-19T06:52:46.221Z,35.50
2019-05-19T06:55:13.804Z,34.93
2019-05-19T06:57:40.865Z,33.47
2019-05-19T07:00:08.347Z,37.57
2019-05-19T07:02:35.389Z,34.27
2019-05-19T07:05:02.747Z,33.03
2019-05-19T07:07:29.776Z,33.97
2019-05-19T07:09:58.763Z,34.90
2019-05-19T07:12:25.808Z,35.23
2019-05-19T07:14:52.863Z,34.37
2019-05-19T07:17:19.939Z,36.00
2019-05-19T07:19:46.999Z,34.57
2019-05-19T07:22:14.066Z,32.83
2019-05-19T07:24:41.162Z,33.17
2019-05-19T07:27:08.338Z,32.83
2019-05-19T07:29:35.374Z,34.37
2019-05-19T07:32:02.521Z,34.63
2019-05-19T07:34:29.692Z,33.57
2019-05-19T07:37:02.856Z,34.03
2019-05-19T07:39:32.427Z,33.77
2019-05-19T07:41:59.501Z,31.07
2019-05-19T07:44:26.508Z,34.40
2019-05-19T07:46:53.835Z,31.47
2019-05-19T07:49:20.893Z,33.97
2019-05-19T07:51:47.900Z,32.37
2019-05-19T07:54:14.974Z,33.53
2019-05-19T07:56:42.025Z,33.30
2019-05-19T07:59:09.066Z,33.27
2019-05-19T08:01:36.180Z,33.83
2019-05-19T08:04:03.257Z,35.00
2019-05-19T08:06:30.322Z,32.27
2019-05-19T08:08:57.435Z,31.70
2019-05-19T08:11:27.225Z,33.17
2019-05-19T08:13:54.326Z,31.47
2019-05-19T08:16:21.397Z,32.07
2019-05-19T08:18:48.492Z,33.93
2019-05-19T08:21:15.539Z,33.03
2019-05-19T08:23:58.535Z,33.67
2019-05-19T08:26:11.582Z,33.23
2019-05-19T08:28:38.679Z,33.67
2019-05-19T08:31:05.745Z,32.90
2019-05-19T08:33:33.199Z,30.57
2019-05-19T08:36:00.318Z,28.90
2019-05-19T08:38:30.382Z,27.17
2019-05-19T08:40:57.434Z,26.93
2019-05-19T08:43:24.481Z,25.33
2019-05-19T08:45:55.841Z,23.10
2019-05-19T08:48:23.009Z,24.13
2019-05-19T08:50:50.035Z,23.60
2019-05-19T08:53:17.126Z,24.03
2019-05-19T08:55:44.164Z,25.33
2019-05-19T08:58:11.233Z,23.33
2019-05-19T09:00:38.755Z,21.50
2019-05-19T09:03:06.034Z,20.53
2019-05-19T09:05:33.127Z,20.53
2019-05-19T09:08:00.270Z,21.60
2019-05-19T09:10:27.355Z,22.53
2019-05-19T09:12:54.435Z,20.80
2019-05-19T09:15:21.531Z,21.37
2019-05-19T09:17:48.581Z,22.37
2019-05-19T09:20:15.856Z,20.73
2019-05-19T09:22:42.954Z,20.13
2019-05-19T09:25:10.047Z,21.93
2019-05-19T09:27:37.125Z,20.00
2019-05-19T09:30:05.141Z,21.93
2019-05-19T09:32:32.249Z,22.03
2019-05-19T09:35:02.376Z,21.63
2019-05-19T09:37:29.444Z,22.23
2019-05-19T09:39:56.513Z,21.93
2019-05-19T09:42:23.614Z,22.10
2019-05-19T09:44:50.712Z,23.13
2019-05-19T09:47:17.786Z,22.37
2019-05-19T09:49:44.853Z,22.70
2019-05-19T09:52:16.540Z,21.57
2019-05-19T09:54:45.090Z,21.77
2019-05-19T09:57:10.229Z,21.40
2019-05-19T09:59:37.313Z,22.23
2019-05-19T10:02:04.345Z,22.63
2019-05-19T10:04:31.505Z,20.17
2019-05-19T10:06:58.537Z,20.27
2019-05-19T10:09:55.254Z,18.90
2019-05-19T10:12:22.318Z,19.33
2019-05-19T10:14:49.363Z,19.20
2019-05-19T10:17:16.431Z,20.27
2019-05-19T10:19:43.486Z,20.80
2019-05-19T10:22:10.589Z,17.90
2019-05-19T10:24:37.734Z,18.00
2019-05-19T10:27:04.783Z,19.17
2019-05-19T10:29:31.825Z,18.07
2019-05-19T10:31:58.876Z,18.73
2019-05-19T10:34:26.005Z,19.07
2019-05-19T10:36:53.144Z,19.80
2019-05-19T10:39:20.240Z,19.13
2019-05-19T10:41:47.265Z,20.53
2019-05-19T10:44:14.330Z,20.00
2019-05-19T10:46:41.365Z,20.87
2019-05-19T10:49:08.379Z,21.40
2019-05-19T10:51:35.443Z,20.33
2019-05-19T10:54:02.507Z,20.87
2019-05-19T10:56:29.576Z,21.03
2019-05-19T10:58:56.650Z,21.10
2019-05-19T11:01:23.689Z,20.07
2019-05-19T11:03:50.736Z,19.90
2019-05-19T11:06:17.787Z,20.37
2019-05-19T11:08:44.819Z,21.07
2019-05-19T11:11:11.854Z,21.23
2019-05-19T11:13:38.958Z,20.90
2019-05-19T11:16:05.972Z,19.57
2019-05-19T11:18:33.031Z,19.27
2019-05-19T11:21:00.138Z,18.67
2019-05-19T11:23:27.286Z,20.27
2019-05-19T11:25:54.362Z,20.43
2019-05-19T11:28:21.408Z,21.90
2019-05-19T11:30:48.417Z,19.23
2019-05-19T11:33:15.438Z,20.97
2019-05-19T11:35:42.488Z,20.67
2019-05-19T11:38:09.612Z,21.30
2019-05-19T11:40:36.637Z,21.10
2019-05-19T11:43:03.725Z,21.47
2019-05-19T11:45:30.766Z,20.73
2019-05-19T11:47:57.779Z,20.10
2019-05-19T11:50:24.821Z,21.27
2019-05-19T11:52:51.857Z,21.13
2019-05-19T11:55:18.871Z,21.13
2019-05-19T11:57:45.918Z,19.83
2019-05-19T12:00:13.376Z,18.73
2019-05-19T12:02:40.449Z,19.13
2019-05-19T12:05:07.759Z,18.73
2019-05-19T12:07:34.799Z,18.83
2019-05-19T12:10:01.849Z,19.40
2019-05-19T12:12:28.895Z,17.10
2019-05-19T12:14:55.934Z,18.87
2019-05-19T12:17:22.943Z,18.80
2019-05-19T12:19:49.987Z,19.03
2019-05-19T12:22:17.003Z,19.33
2019-05-19T12:24:44.127Z,21.53
2019-05-19T12:27:11.194Z,18.87
2019-05-19T12:29:38.222Z,20.00
2019-05-19T12:32:05.279Z,19.27
2019-05-19T12:34:32.400Z,18.40
2019-05-19T12:36:59.493Z,20.60
2019-05-19T12:39:26.603Z,19.27
2019-05-19T12:41:53.666Z,18.40
2019-05-19T12:44:20.685Z,19.90
2019-05-19T12:46:47.764Z,19.37
2019-05-19T12:49:14.841Z,20.13
2019-05-19T12:51:41.887Z,19.77
2019-05-19T12:54:08.940Z,20.23
2019-05-19T12:56:39.824Z,19.83
2019-05-19T12:59:04.947Z,20.67
2019-05-19T13:01:31.975Z,20.93
2019-05-19T13:03:59.016Z,20.77
2019-05-19T13:06:26.045Z,21.53
2019-05-19T13:08:53.063Z,21.10
2019-05-19T13:11:20.209Z,22.07
2019-05-19T13:13:47.235Z,21.90
2019-05-19T13:16:14.282Z,21.57
2019-05-19T13:18:41.363Z,20.83
2019-05-19T13:21:08.416Z,20.33
2019-05-19T13:23:35.456Z,20.97
2019-05-19T13:26:02.533Z,20.53
2019-05-19T13:28:29.596Z,22.47
2019-05-19T13:30:56.613Z,21.47
2019-05-19T13:33:23.676Z,21.07
2019-05-19T13:35:50.775Z,20.20
2019-05-19T13:38:17.878Z,20.00
2019-05-19T13:40:44.931Z,18.63
2019-05-19T13:43:11.976Z,18.47
2019-05-19T13:45:39.013Z,18.87
2019-05-19T13:48:06.143Z,18.33
2019-05-19T13:50:33.173Z,17.83
2019-05-19T13:53:00.199Z,17.00
2019-05-19T13:55:27.242Z,17.60
2019-05-19T13:57:54.244Z,17.80
2019-05-19T14:00:21.369Z,17.20
2019-05-19T14:02:48.436Z,15.50
2019-05-19T14:05:15.457Z,14.03
2019-05-19T14:07:42.514Z,14.33
2019-05-19T14:10:09.671Z,15.23
2019-05-19T14:12:36.687Z,14.07
2019-05-19T14:15:04.379Z,14.80
2019-05-19T14:17:31.567Z,13.80
2019-05-19T14:19:58.576Z,15.57
2019-05-19T14:22:25.621Z,15.20
2019-05-19T14:24:52.636Z,15.57
2019-05-19T14:27:29.169Z,14.70
2019-05-19T14:29:48.725Z,15.47
2019-05-19T14:32:15.738Z,15.57
2019-05-19T14:34:42.768Z,15.77
2019-05-19T14:37:09.809Z,16.13
2019-05-19T14:39:36.835Z,16.17
2019-05-19T14:42:07.660Z,14.90
2019-05-19T14:44:34.689Z,14.90
2019-05-19T14:47:01.726Z,15.13
2019-05-19T14:49:28.813Z,16.57
2019-05-19T14:51:55.816Z,16.87
2019-05-19T14:54:22.832Z,17.27
2019-05-19T14:56:49.902Z,15.77
2019-05-19T14:59:16.924Z,16.70
2019-05-19T15:01:43.967Z,17.30
2019-05-19T15:04:10.990Z,17.57
2019-05-19T15:06:38.000Z,17.53
2019-05-19T15:09:05.803Z,16.47
2019-05-19T15:11:32.819Z,17.53
2019-05-19T15:13:59.830Z,18.30
2019-05-19T15:16:27.733Z,17.00
2019-05-19T15:18:54.758Z,17.97
2019-05-19T15:21:21.793Z,17.40
2019-05-19T15:23:48.825Z,18.50
2019-05-19T15:26:15.863Z,19.20
2019-05-19T15:28:42.867Z,19.60
2019-05-19T15:31:09.908Z,19.20
2019-05-19T15:33:38.670Z,20.17
2019-05-19T15:36:06.337Z,18.37
2019-05-19T15:38:33.609Z,19.60
2019-05-19T15:41:00.776Z,19.73
2019-05-19T15:43:27.799Z,19.87
2019-05-19T15:45:54.811Z,19.67
2019-05-19T15:48:21.823Z,19.07
2019-05-19T15:50:48.992Z,19.73
2019-05-19T15:53:16.009Z,20.27
2019-05-19T15:55:43.067Z,20.57
2019-05-19T15:58:16.497Z,21.30
2019-05-19T16:00:39.055Z,21.27
2019-05-19T16:03:06.126Z,20.87
2019-05-19T16:05:33.141Z,21.70
2019-05-19T16:08:00.220Z,22.53
2019-05-19T16:10:27.346Z,20.90
2019-05-19T16:12:54.318Z,22.80
2019-05-19T16:15:22.396Z,22.47
2019-05-19T16:17:49.412Z,23.07
2019-05-19T16:20:16.773Z,21.67
2019-05-19T16:22:43.785Z,22.80
2019-05-19T16:25:11.202Z,22.47
2019-05-19T16:27:38.253Z,23.67
2019-05-19T16:30:05.812Z,22.60
2019-05-19T16:32:32.822Z,23.57
2019-05-19T16:34:59.858Z,23.63
2019-05-19T16:37:26.931Z,23.17
2019-05-19T16:39:53.956Z,20.87
2019-05-19T16:42:20.996Z,21.67
2019-05-19T16:44:48.030Z,21.47
2019-05-19T16:47:15.063Z,22.33
2019-05-19T16:49:42.176Z,22.87
2019-05-19T16:52:09.219Z,23.13
2019-05-19T16:54:38.750Z,22.50
2019-05-19T16:57:05.823Z,25.00
2019-05-19T16:59:32.860Z,25.13
2019-05-19T17:01:59.902Z,25.00
2019-05-19T17:04:26.956Z,25.23
2019-05-19T17:06:54.138Z,24.03
2019-05-19T17:09:21.209Z,26.27
2019-05-19T17:11:48.249Z,25.80
2019-05-19T17:14:15.321Z,26.20
2019-05-19T17:16:43.199Z,27.87
2019-05-19T17:19:10.249Z,29.10
2019-05-19T17:21:37.276Z,28.00
2019-05-19T17:24:04.344Z,27.97
2019-05-19T17:26:31.419Z,28.80
2019-05-19T17:29:00.958Z,30.50
2019-05-19T17:31:27.422Z,31.57
2019-05-19T17:33:54.471Z,29.30
2019-05-19T17:36:21.552Z,29.37
2019-05-19T17:38:48.623Z,30.83
2019-05-19T17:41:15.656Z,30.90
2019-05-19T17:43:42.762Z,30.90
2019-05-19T17:46:09.777Z,30.37
2019-05-19T17:48:36.803Z,31.40
2019-05-19T17:51:03.967Z,31.50
2019-05-19T17:53:31.024Z,30.63
2019-05-19T17:55:58.837Z,30.57
2019-05-19T17:58:26.947Z,29.37
2019-05-19T18:00:53.975Z,30.27
2019-05-19T18:03:21.759Z,30.53
2019-05-19T18:05:48.800Z,30.80
2019-05-19T18:08:15.801Z,29.73
2019-05-19T18:10:42.858Z,30.37
2019-05-19T18:13:09.940Z,27.20
2019-05-19T18:15:36.985Z,28.30
2019-05-19T18:18:04.030Z,27.70
2019-05-19T18:20:33.931Z,28.63
2019-05-19T18:23:00.938Z,26.67
2019-05-19T18:25:28.007Z,28.00
2019-05-19T18:27:55.274Z,27.70
2019-05-19T18:30:22.318Z,26.60
2019-05-19T18:32:49.370Z,26.53
2019-05-19T18:35:16.373Z,26.03
2019-05-19T18:37:43.466Z,27.37
2019-05-19T18:40:10.516Z,26.90
2019-05-19T18:42:37.538Z,26.47
2019-05-19T18:45:04.654Z,28.17
2019-05-19T18:47:31.730Z,27.73
2019-05-19T18:49:58.798Z,27.37
2019-05-19T18:52:25.855Z,26.70
2019-05-19T18:54:52.935Z,26.00
2019-05-19T18:57:20.002Z,28.00
2019-05-19T18:59:47.911Z,27.73
2019-05-19T19:02:15.266Z,26.50
2019-05-19T19:04:42.275Z,26.10
2019-05-19T19:07:09.313Z,27.00
2019-05-19T19:09:36.307Z,28.97
2019-05-19T19:12:03.354Z,27.80
2019-05-19T19:14:30.429Z,26.87
2019-05-19T19:16:57.435Z,28.90
2019-05-19T19:19:24.458Z,27.30
2019-05-19T19:21:51.487Z,27.93
2019-05-19T19:24:18.496Z,27.97
2019-05-19T19:26:45.538Z,25.43
2019-05-19T19:29:12.571Z,27.27
2019-05-19T19:31:47.981Z,28.33
2019-05-19T19:34:08.551Z,27.60
2019-05-19T19:36:35.680Z,27.63
2019-05-19T19:39:04.234Z,27.53
2019-05-19T19:41:31.294Z,27.67
2019-05-19T19:43:58.310Z,27.50
2019-05-19T19:46:25.321Z,25.43
2019-05-19T19:48:52.346Z,29.03
2019-05-19T19:51:19.421Z,28.90
2019-05-19T19:53:46.430Z,28.67
2019-05-19T19:56:13.454Z,27.50
2019-05-19T19:58:40.529Z,28.67
2019-05-19T20:01:07.593Z,27.37
2019-05-19T20:03:39.802Z,29.43
2019-05-19T20:06:04.025Z,29.60
2019-05-19T20:08:31.055Z,27.07
2019-05-19T20:10:58.142Z,28.10
2019-05-19T20:13:25.175Z,25.53
2019-05-19T20:15:52.207Z,28.90
2019-05-19T20:18:19.273Z,28.73
2019-05-19T20:20:46.293Z,24.77
2019-05-19T20:23:13.329Z,22.30
2019-05-19T20:25:40.407Z,22.60
2019-05-19T20:28:07.445Z,20.90
2019-05-19T20:30:36.413Z,19.33
2019-05-19T20:33:03.519Z,19.93
2019-05-19T20:35:31.854Z,25.97
2019-05-19T20:37:58.960Z,23.13
2019-05-19T20:40:26.028Z,21.57
2019-05-19T20:42:53.040Z,20.67
2019-05-19T20:45:20.095Z,20.73
2019-05-19T20:47:47.152Z,22.60
2019-05-19T20:50:14.183Z,23.60
2019-05-19T20:52:41.203Z,23.20
2019-05-19T20:55:08.214Z,22.37
2019-05-19T20:57:35.269Z,23.50
2019-05-19T21:00:02.553Z,22.03
2019-05-19T21:02:29.622Z,23.73
2019-05-19T21:04:56.630Z,22.40
2019-05-19T21:07:23.651Z,23.23
2019-05-19T21:09:50.686Z,23.03
2019-05-19T21:12:17.710Z,23.87
2019-05-19T21:14:44.750Z,22.57
2019-05-19T21:17:11.774Z,23.17
2019-05-19T21:19:38.935Z,21.53
2019-05-19T21:22:05.924Z,22.77
2019-05-19T21:24:32.956Z,23.97
2019-05-19T21:27:00.051Z,24.10
2019-05-19T21:29:27.080Z,22.33
2019-05-19T21:31:54.090Z,22.57
2019-05-19T21:34:21.172Z,23.33
2019-05-19T21:36:48.306Z,23.57
2019-05-19T21:39:15.348Z,24.93
2019-05-19T21:41:42.461Z,21.40
2019-05-19T21:44:09.493Z,20.27
2019-05-19T21:46:36.483Z,22.27
2019-05-19T21:49:03.554Z,22.17
2019-05-19T21:51:30.592Z,20.80
2019-05-19T21:53:57.640Z,24.00
2019-05-19T21:56:24.690Z,22.17
2019-05-19T21:58:51.727Z,18.70
2019-05-19T22:01:23.143Z,23.33
2019-05-19T22:03:47.871Z,21.67
2019-05-19T22:06:15.719Z,22.67
2019-05-19T22:08:42.763Z,19.53
2019-05-19T22:11:09.840Z,21.17
2019-05-19T22:13:36.906Z,21.43
2019-05-19T22:16:13.011Z,22.33
2019-05-19T22:18:32.921Z,24.60
2019-05-19T22:21:00.017Z,20.57
2019-05-19T22:23:27.022Z,22.07
2019-05-19T22:25:54.080Z,21.27
2019-05-19T22:28:21.123Z,18.40
2019-05-19T22:30:48.165Z,18.77
2019-05-19T22:33:15.189Z,17.77
2019-05-19T22:35:42.238Z,14.83
2019-05-19T22:38:09.774Z,14.53
2019-05-19T22:40:36.909Z,14.03
2019-05-19T22:43:03.932Z,12.43
2019-05-19T22:45:31.030Z,12.50
2019-05-19T22:47:58.043Z,10.73
2019-05-19T22:50:25.120Z,11.80
2019-05-19T22:52:52.126Z,10.87
2019-05-19T22:55:19.261Z,10.87
2019-05-19T22:57:46.319Z,12.03
2019-05-19T23:00:15.177Z,11.20
2019-05-19T23:02:42.225Z,10.43
2019-05-19T23:05:09.563Z,10.63
2019-05-19T23:07:36.668Z,9.83
2019-05-19T23:10:04.476Z,9.67
2019-05-19T23:12:31.507Z,10.90
2019-05-19T23:14:58.645Z,10.80
2019-05-19T23:17:25.650Z,11.00
2019-05-19T23:19:52.690Z,10.33
2019-05-19T23:22:19.790Z,9.20
2019-05-19T23:24:46.895Z,9.90
2019-05-19T23:27:13.925Z,12.63
2019-05-19T23:29:40.980Z,14.27
2019-05-19T23:32:08.027Z,14.97
2019-05-19T23:34:35.243Z,14.50
2019-05-19T23:37:02.326Z,15.73
2019-05-19T23:39:29.503Z,17.13
2019-05-19T23:41:56.587Z,16.50
2019-05-19T23:44:23.675Z,17.97
2019-05-19T23:46:50.687Z,15.80
2019-05-19T23:49:17.754Z,16.20
2019-05-19T23:51:44.851Z,16.03
2019-05-19T23:54:11.927Z,15.03
2019-05-19T23:56:38.960Z,14.33
2019-05-19T23:59:06.017Z,12.70
